Time;durP1;ratioP1;P1;durP2;ratioP2;P2;SDS_P1;SDS_P2;PMS_P1;PMS_P2;Temp;Humidity;BMP_temperature;BMP_pressure;BME280_temperature;BME280_humidity;BME280_pressure;Samples;Min_cycle;Max_cycle;Signal;HPM_P1;HPM_P2
2023/05/22 00:02:01;;;;;;;24.90;13.88;;;;;;;16.71;100.00;94264.19;5115070;28;20031;-82
2023/05/22 00:04:28;;;;;;;24.30;14.27;;;;;;;16.78;100.00;94258.44;5098016;28;20031;-82
2023/05/22 00:06:55;;;;;;;20.10;13.30;;;;;;;17.09;100.00;94263.63;5114915;28;20340;-81
2023/05/22 00:09:20;;;;;;;21.63;13.88;;;;;;;17.10;100.00;94264.41;5098097;28;20345;-82
2023/05/22 00:11:46;;;;;;;21.00;13.23;;;;;;;17.08;100.00;94266.59;5114807;28;20034;-82
2023/05/22 00:14:14;;;;;;;22.17;13.18;;;;;;;17.10;100.00;94270.50;5114797;28;20031;-82
2023/05/22 00:16:40;;;;;;;27.40;13.98;;;;;;;16.66;100.00;94266.97;5114976;28;20076;-82
2023/05/22 00:19:11;;;;;;;21.13;11.43;;;;;;;16.91;100.00;94262.03;5114672;28;20450;-82
2023/05/22 00:21:36;;;;;;;24.80;11.80;;;;;;;16.91;100.00;94267.31;5114785;28;20076;-82
2023/05/22 00:24:02;;;;;;;21.95;10.65;;;;;;;16.95;100.00;94263.75;5114481;28;20016;-82
2023/05/22 00:26:28;;;;;;;21.60;10.82;;;;;;;17.05;100.00;94265.31;5114698;28;20023;-82
2023/05/22 00:28:53;;;;;;;19.55;10.85;;;;;;;17.05;100.00;94261.91;5114678;28;20029;-82
2023/05/22 00:31:19;;;;;;;17.17;11.15;;;;;;;17.07;100.00;94260.53;5115549;28;20027;-82
2023/05/22 00:33:44;;;;;;;19.83;11.32;;;;;;;16.85;100.00;94258.75;5114527;28;20027;-82
2023/05/22 00:36:09;;;;;;;21.98;11.32;;;;;;;16.93;100.00;94257.22;5114228;28;20024;-82
2023/05/22 00:38:36;;;;;;;19.13;11.38;;;;;;;16.93;100.00;94259.88;5115424;28;20035;-82
2023/05/22 00:41:03;;;;;;;20.15;12.82;;;;;;;16.86;100.00;94255.03;5114299;28;20019;-81
2023/05/22 00:43:29;;;;;;;20.52;13.20;;;;;;;16.91;100.00;94256.72;5114375;28;20058;-82
2023/05/22 00:45:55;;;;;;;23.73;13.80;;;;;;;17.18;100.00;94246.97;5115322;28;20058;-82
2023/05/22 00:48:21;;;;;;;19.35;13.02;;;;;;;17.17;100.00;94256.78;5114248;28;20440;-82
2023/05/22 00:50:48;;;;;;;23.60;14.50;;;;;;;17.17;100.00;94254.13;5114160;28;20023;-82
2023/05/22 00:53:14;;;;;;;24.48;13.98;;;;;;;17.06;100.00;94243.06;5097205;28;20047;-81
2023/05/22 00:55:40;;;;;;;20.60;13.00;;;;;;;17.19;100.00;94251.16;5113924;28;20023;-81
2023/05/22 00:58:06;;;;;;;21.23;14.00;;;;;;;17.09;100.00;94237.16;5113952;28;20019;-81
2023/05/22 01:00:36;;;;;;;31.33;17.85;;;;;;;16.68;100.00;94241.00;5096552;28;20023;-81
2023/05/22 01:03:06;;;;;;;27.85;17.58;;;;;;;16.70;100.00;94238.81;5114289;28;20077;-82
2023/05/22 01:05:32;;;;;;;27.10;16.98;;;;;;;16.79;100.00;94236.19;5114908;28;20027;-81
2023/05/22 01:07:57;;;;;;;26.30;15.95;;;;;;;16.91;100.00;94235.56;5113899;28;20035;-81
2023/05/22 01:10:23;;;;;;;24.52;15.18;;;;;;;17.03;100.00;94237.63;5115031;28;20364;-81
2023/05/22 01:12:52;;;;;;;31.35;14.90;;;;;;;17.05;100.00;94241.50;5113893;28;20122;-82
2023/05/22 01:15:18;;;;;;;27.33;15.38;;;;;;;16.87;100.00;94237.28;5113614;28;20034;-82
2023/05/22 01:17:54;;;;;;;21.85;14.25;;;;;;;17.18;100.00;94241.66;5114904;28;20445;-82
2023/05/22 01:20:40;;;;;;;23.60;14.35;;;;;;;17.16;100.00;94239.34;5113721;28;20401;-81
2023/05/22 01:23:26;;;;;;;27.20;14.45;;;;;;;17.25;100.00;94239.34;5113673;28;20432;-81
2023/05/22 01:26:01;;;;;;;24.95;15.80;;;;;;;16.96;100.00;94238.06;5114864;28;20027;-81
2023/05/22 01:28:45;;;;;;;28.27;16.08;;;;;;;17.05;100.00;94241.50;5113856;28;20031;-82
2023/05/22 01:31:14;;;;;;;24.20;15.60;;;;;;;17.04;100.00;94244.47;5114634;28;20027;-81
2023/05/22 01:34:08;;;;;;;29.02;14.60;;;;;;;17.02;100.00;94242.13;5113530;28;20160;-81
2023/05/22 01:36:35;;;;;;;25.77;14.68;;;;;;;16.69;100.00;94245.19;5092931;28;20364;-81
2023/05/22 01:39:03;;;;;;;29.88;17.58;;;;;;;15.89;100.00;94236.22;5096774;28;20027;-81
2023/05/22 01:41:29;;;;;;;37.65;18.83;;;;;;;15.74;100.00;94239.22;5113435;28;20063;-81
2023/05/22 01:43:55;;;;;;;37.22;18.52;;;;;;;15.72;100.00;94244.81;5113550;28;20028;-80
2023/05/22 01:46:23;;;;;;;25.08;15.73;;;;;;;16.11;100.00;94248.59;5113277;28;20503;-80
2023/05/22 01:48:49;;;;;;;27.45;15.77;;;;;;;16.11;100.00;94248.59;5113442;28;20031;-80
2023/05/22 01:51:21;;;;;;;26.40;15.27;;;;;;;16.33;100.00;94249.63;5096728;28;20522;-81
2023/05/22 01:54:10;;;;;;;25.77;15.73;;;;;;;16.39;100.00;94247.63;5096647;28;20047;-82
2023/05/22 01:56:40;;;;;;;24.55;16.40;;;;;;;16.37;100.00;94239.22;5113362;28;20373;-80
2023/05/22 01:59:05;;;;;;;25.38;15.80;;;;;;;16.23;100.00;94242.75;5114645;28;20118;-80
2023/05/22 02:01:31;;;;;;;35.85;18.63;;;;;;;15.48;100.00;94245.13;5114769;28;20122;-80
2023/05/22 02:03:57;;;;;;;29.83;18.40;;;;;;;15.64;100.00;94238.41;5113304;28;20020;-80
2023/05/22 02:06:25;;;;;;;34.15;17.85;;;;;;;15.62;100.00;94247.72;5113183;28;20051;-80
2023/05/22 02:08:51;;;;;;;25.38;17.80;;;;;;;15.90;100.00;94247.56;5096417;28;20453;-82
2023/05/22 02:11:17;;;;;;;33.22;18.42;;;;;;;15.65;100.00;94249.75;5126418;28;20030;-80
2023/05/22 02:13:42;;;;;;;31.83;19.73;;;;;;;15.32;100.00;94245.50;5103529;27;20027;-80
2023/05/22 02:16:08;;;;;;;39.97;22.70;;;;;;;14.89;100.00;94238.00;5122640;27;20026;-80
2023/05/22 02:18:33;;;;;;;41.95;23.45;;;;;;;14.82;100.00;94233.94;5138693;27;20030;-82
2023/05/22 02:20:59;;;;;;;44.90;26.15;;;;;;;14.95;100.00;94232.31;5110796;27;20128;-83
2023/05/22 02:23:25;;;;;;;51.90;28.70;;;;;;;14.93;100.00;94231.84;5114073;27;20415;-82
2023/05/22 02:25:51;;;;;;;46.45;26.67;;;;;;;15.23;100.00;94236.75;5086857;28;20065;-80
2023/05/22 02:28:16;;;;;;;40.47;23.85;;;;;;;15.52;100.00;94238.19;5101946;28;20063;-81
2023/05/22 02:30:42;;;;;;;38.65;22.40;;;;;;;15.55;100.00;94229.66;5102130;28;20106;-80
2023/05/22 02:33:08;;;;;;;39.08;21.38;;;;;;;15.62;100.00;94227.34;5085308;28;20332;-81
2023/05/22 02:35:34;;;;;;;35.00;21.38;;;;;;;15.63;100.00;94228.91;5119938;28;20024;-80
2023/05/22 02:38:00;;;;;;;34.35;23.13;;;;;;;15.77;100.00;94230.69;5101857;28;20024;-80
2023/05/22 02:40:28;;;;;;;51.42;29.13;;;;;;;15.93;100.00;94236.41;5091392;28;20034;-80
2023/05/22 02:42:54;;;;;;;47.80;28.92;;;;;;;16.16;100.00;94226.53;5099784;28;20028;-82
2023/05/22 02:45:19;;;;;;;51.35;29.30;;;;;;;16.33;100.00;94231.09;5101683;28;20027;-80
2023/05/22 02:47:45;;;;;;;48.85;28.58;;;;;;;16.49;100.00;94228.03;5101952;28;20032;-82
2023/05/22 02:50:10;;;;;;;46.85;27.88;;;;;;;16.70;100.00;94225.59;5101708;28;20080;-80
2023/05/22 02:52:35;;;;;;;45.20;26.65;;;;;;;16.64;100.00;94224.16;5101558;28;20072;-82
2023/05/22 02:55:03;;;;;;;45.60;26.52;;;;;;;16.50;100.00;94224.31;5099994;28;20031;-81
2023/05/22 02:57:28;;;;;;;44.53;25.67;;;;;;;16.73;100.00;94222.31;5099367;28;20031;-83
2023/05/22 02:59:54;;;;;;;38.40;24.25;;;;;;;16.85;100.00;94218.28;5099118;28;20106;-82
2023/05/22 03:02:19;;;;;;;41.85;25.48;;;;;;;16.77;100.00;94223.25;5099169;28;20038;-80
2023/05/22 03:04:45;;;;;;;38.80;24.75;;;;;;;16.86;100.00;94222.50;5083281;28;20034;-80
2023/05/22 03:07:11;;;;;;;37.72;24.08;;;;;;;16.86;100.00;94223.28;5119301;28;20027;-81
2023/05/22 03:09:36;;;;;;;43.80;25.77;;;;;;;16.88;100.00;94223.75;5101523;28;20035;-80
2023/05/22 03:12:03;;;;;;;41.65;24.27;;;;;;;16.84;100.00;94224.66;5119351;28;20458;-81
2023/05/22 03:14:29;;;;;;;38.45;24.67;;;;;;;16.82;100.00;94224.97;5101097;28;20034;-80
2023/05/22 03:16:54;;;;;;;43.15;25.75;;;;;;;16.66;100.00;94224.66;5101033;28;20028;-80
2023/05/22 03:19:22;;;;;;;46.88;25.52;;;;;;;16.83;100.00;94223.88;5119327;28;20150;-80
2023/05/22 03:21:48;;;;;;;39.92;24.30;;;;;;;16.87;100.00;94222.19;5118308;28;20024;-80
2023/05/22 03:24:14;;;;;;;36.90;22.65;;;;;;;16.88;100.00;94225.59;5100879;28;20020;-80
2023/05/22 03:26:40;;;;;;;45.55;23.25;;;;;;;16.85;100.00;94221.69;5100649;28;20424;-82
2023/05/22 03:29:06;;;;;;;38.22;22.45;;;;;;;16.85;100.00;94221.69;5101231;28;20037;-80
2023/05/22 03:31:32;;;;;;;48.25;23.30;;;;;;;15.93;100.00;94220.53;5100853;28;20371;-80
2023/05/22 03:33:57;;;;;;;34.72;22.95;;;;;;;15.59;100.00;94227.97;5100798;28;20023;-82
2023/05/22 03:36:22;;;;;;;43.70;25.67;;;;;;;15.17;100.00;94224.72;5118902;28;20030;-81
2023/05/22 03:38:48;;;;;;;45.88;26.88;;;;;;;15.34;100.00;94222.22;5100752;28;20031;-80
2023/05/22 03:41:14;;;;;;;47.80;27.70;;;;;;;15.41;100.00;94224.44;5100573;28;20347;-82
2023/05/22 03:43:39;;;;;;;37.85;23.45;;;;;;;15.72;100.00;94222.91;5100838;28;20020;-80
2023/05/22 03:46:05;;;;;;;46.80;28.30;;;;;;;15.48;100.00;94226.66;5100398;28;20043;-81
2023/05/22 03:48:32;;;;;;;51.15;28.33;;;;;;;15.59;100.00;94230.59;5100425;28;20031;-80
2023/05/22 03:50:57;;;;;;;47.13;27.63;;;;;;;15.65;100.00;94216.19;5100377;28;20035;-80
2023/05/22 03:53:23;;;;;;;54.13;29.55;;;;;;;15.73;100.00;94224.47;5100285;28;20027;-80
2023/05/22 03:55:48;;;;;;;43.58;26.90;;;;;;;15.79;100.00;94226.66;5100256;28;20344;-80
2023/05/22 03:58:13;;;;;;;50.28;29.08;;;;;;;15.24;100.00;94222.47;5100300;28;20145;-80
2023/05/22 04:00:39;;;;;;;55.83;30.45;;;;;;;15.43;100.00;94232.84;5100444;28;20035;-80
2023/05/22 04:03:06;;;;;;;58.80;33.03;;;;;;;15.22;100.00;94228.03;5100366;28;20023;-80
2023/05/22 04:05:31;;;;;;;56.67;31.17;;;;;;;15.74;100.00;94228.66;5100256;28;20020;-80
2023/05/22 04:07:56;;;;;;;67.55;34.92;;;;;;;15.90;100.00;94232.50;5100278;28;20122;-80
2023/05/22 04:10:22;;;;;;;54.53;33.13;;;;;;;16.11;100.00;94231.97;5099844;28;20032;-80
2023/05/22 04:12:48;;;;;;;53.53;30.70;;;;;;;16.33;100.00;94228.47;5118093;28;20110;-80
2023/05/22 04:15:14;;;;;;;54.25;30.00;;;;;;;16.28;100.00;94230.47;5099714;28;20082;-81
2023/05/22 04:17:42;;;;;;;52.90;30.33;;;;;;;16.53;100.00;94224.47;5102176;27;20046;-81
2023/05/22 04:20:08;;;;;;;53.45;30.58;;;;;;;16.73;100.00;94229.50;5132238;27;20054;-81
2023/05/22 04:22:34;;;;;;;50.22;26.77;;;;;;;16.77;100.00;94225.91;5120136;27;20387;-81
2023/05/22 04:25:00;;;;;;;42.38;25.25;;;;;;;16.90;100.00;94232.16;5098906;27;20046;-80
2023/05/22 04:27:25;;;;;;;41.67;25.00;;;;;;;16.85;100.00;94226.22;5134460;27;20396;-80
2023/05/22 04:29:51;;;;;;;42.25;26.88;;;;;;;16.54;100.00;94244.53;5138450;27;20097;-80
2023/05/22 04:32:20;;;;;;;46.60;24.95;;;;;;;16.74;100.00;94237.09;5138253;27;20023;-81
2023/05/22 04:34:47;;;;;;;39.80;23.38;;;;;;;16.92;100.00;94243.19;5116388;28;20027;-80
2023/05/22 04:37:13;;;;;;;36.78;23.08;;;;;;;16.93;100.00;94244.75;5116794;28;20101;-80
2023/05/22 04:39:39;;;;;;;34.45;22.10;;;;;;;16.75;100.00;94249.25;5099654;28;20428;-80
2023/05/22 04:42:05;;;;;;;35.97;21.95;;;;;;;16.77;100.00;94251.59;5116226;28;20027;-80
2023/05/22 04:44:34;;;;;;;38.90;22.45;;;;;;;16.86;100.00;94256.88;5116075;28;20028;-80
2023/05/22 04:47:01;;;;;;;33.05;21.27;;;;;;;16.84;100.00;94251.13;5115717;28;20027;-80
2023/05/22 04:49:27;;;;;;;26.73;17.92;;;;;;;16.31;100.00;94249.16;5124600;27;20028;-80
2023/05/22 04:51:54;;;;;;;32.95;18.92;;;;;;;16.09;100.00;94260.56;5115114;27;20027;-80
2023/05/22 04:54:19;;;;;;;25.60;16.85;;;;;;;15.78;100.00;94256.00;5119486;27;20031;-80
2023/05/22 04:56:45;;;;;;;27.85;16.10;;;;;;;16.22;100.00;94257.06;5119678;27;20034;-80
2023/05/22 04:59:14;;;;;;;27.13;16.08;;;;;;;16.54;100.00;94257.75;5102762;27;20019;-80
2023/05/22 05:01:44;;;;;;;25.38;15.55;;;;;;;16.92;100.00;94261.72;5120146;27;20328;-81
2023/05/22 05:04:10;;;;;;;32.67;19.30;;;;;;;16.94;100.00;94266.72;5120009;27;20027;-80
2023/05/22 05:06:36;;;;;;;33.53;18.55;;;;;;;17.08;100.00;94264.72;5119483;27;20027;-81
2023/05/22 05:09:05;;;;;;;27.98;17.42;;;;;;;17.49;100.00;94272.47;5113489;27;20030;-80
2023/05/22 05:11:30;;;;;;;30.58;18.40;;;;;;;17.18;100.00;94279.53;5104503;28;20035;-81
2023/05/22 05:13:55;;;;;;;31.27;18.55;;;;;;;16.99;100.00;94282.47;5105256;28;20036;-81
2023/05/22 05:16:23;;;;;;;34.25;18.27;;;;;;;16.88;100.00;94278.50;5117006;28;20043;-81
2023/05/22 05:18:50;;;;;;;28.17;16.08;;;;;;;17.70;100.00;94291.16;5102715;28;20423;-80
2023/05/22 05:21:15;;;;;;;27.95;17.40;;;;;;;16.95;100.00;94284.16;5119414;28;20027;-80
2023/05/22 05:23:41;;;;;;;33.58;17.67;;;;;;;17.21;100.00;94286.03;5119243;28;20023;-80
2023/05/22 05:26:06;;;;;;;30.55;17.13;;;;;;;17.36;100.00;94287.47;5110493;28;20038;-81
2023/05/22 05:28:32;;;;;;;24.17;15.07;;;;;;;17.92;100.00;94292.84;5114469;28;20023;-81
2023/05/22 05:30:57;;;;;;;24.60;15.80;;;;;;;18.32;100.00;94288.38;5108004;28;20031;-81
2023/05/22 05:33:22;;;;;;;25.15;16.15;;;;;;;18.75;100.00;94283.97;5103855;28;20448;-81
2023/05/22 05:35:49;;;;;;;31.38;17.15;;;;;;;18.86;100.00;94287.78;5118666;28;20123;-81
2023/05/22 05:38:16;;;;;;;34.20;19.80;;;;;;;19.00;100.00;94278.84;5101499;28;20093;-81
2023/05/22 05:40:42;;;;;;;28.55;17.60;;;;;;;18.78;100.00;94284.09;5112754;28;20016;-81
2023/05/22 05:43:08;;;;;;;31.45;19.08;;;;;;;18.79;100.00;94284.88;5136879;28;20019;-81
2023/05/22 05:45:33;;;;;;;32.25;19.17;;;;;;;18.61;100.00;94289.50;5115675;28;20031;-81
2023/05/22 05:47:59;;;;;;;31.25;20.40;;;;;;;18.81;100.00;94287.22;5099226;28;20030;-80
2023/05/22 05:50:24;;;;;;;33.70;20.08;;;;;;;18.84;100.00;94283.94;5102773;28;20024;-81
2023/05/22 05:52:49;;;;;;;37.95;22.20;;;;;;;18.51;100.00;94283.47;5085943;28;20459;-81
2023/05/22 05:55:15;;;;;;;35.40;21.35;;;;;;;18.79;100.00;94288.31;5102576;28;20379;-81
2023/05/22 05:57:41;;;;;;;40.05;22.75;;;;;;;18.61;100.00;94284.19;5102717;28;20019;-81
2023/05/22 06:00:09;;;;;;;33.65;21.25;;;;;;;18.88;100.00;94277.66;5102652;28;20031;-81
2023/05/22 06:02:34;;;;;;;37.90;22.88;;;;;;;18.89;100.00;94276.56;5107941;27;20026;-81
2023/05/22 06:05:00;;;;;;;34.17;20.92;;;;;;;19.24;100.00;94277.44;5131903;27;20351;-81
2023/05/22 06:07:27;;;;;;;36.55;22.55;;;;;;;19.15;100.00;94285.47;5123465;27;20092;-81
2023/05/22 06:09:52;;;;;;;36.38;22.10;;;;;;;19.10;100.00;94283.78;5121345;27;20442;-81
2023/05/22 06:12:18;;;;;;;30.73;19.20;;;;;;;19.46;100.00;94281.63;5130859;27;20027;-81
2023/05/22 06:14:43;;;;;;;22.98;15.07;;;;;;;19.90;100.00;94287.31;5097073;28;20023;-80
2023/05/22 06:17:09;;;;;;;23.30;14.45;;;;;;;20.12;100.00;94297.91;5111172;28;20428;-80
2023/05/22 06:19:34;;;;;;;22.63;15.23;;;;;;;19.59;100.00;94293.84;5120344;28;20027;-80
2023/05/22 06:21:59;;;;;;;23.45;14.50;;;;;;;20.30;100.00;94301.16;5120413;28;20031;-81
2023/05/22 06:24:25;;;;;;;24.45;15.20;;;;;;;19.71;100.00;94298.44;5135366;27;20020;-81
2023/05/22 06:26:50;;;;;;;24.48;15.00;;;;;;;19.68;100.00;94296.44;5102134;28;20019;-81
2023/05/22 06:29:16;;;;;;;40.22;22.20;;;;;;;19.80;100.00;94293.06;5085253;28;20028;-81
2023/05/22 06:31:41;;;;;;;39.13;21.70;;;;;;;20.02;100.00;94304.44;5102018;28;20035;-81
2023/05/22 06:34:07;;;;;;;35.75;18.90;;;;;;;20.37;100.00;94298.75;5101904;28;20117;-80
2023/05/22 06:36:33;;;;;;;32.33;21.10;;;;;;;20.30;100.00;94298.50;5120140;28;20321;-81
2023/05/22 06:39:00;;;;;;;24.33;15.82;;;;;;;20.79;100.00;94302.28;5102144;28;20031;-81
2023/05/22 06:41:26;;;;;;;30.35;19.67;;;;;;;20.73;100.00;94302.50;5102594;27;20023;-81
2023/05/22 06:43:51;;;;;;;26.85;16.73;;;;;;;21.00;100.00;94302.97;5122119;27;20030;-81
2023/05/22 06:46:17;;;;;;;23.30;15.38;;;;;;;20.98;100.00;94297.19;5105144;27;20052;-81
2023/05/22 06:48:42;;;;;;;33.10;20.60;;;;;;;20.28;100.00;94300.72;5122155;27;20121;-81
2023/05/22 06:51:10;;;;;;;30.35;20.60;;;;;;;20.76;100.00;94303.75;5122306;27;20033;-81
2023/05/22 06:53:35;;;;;;;42.22;22.05;;;;;;;20.40;100.00;94294.63;5140650;27;20034;-81
2023/05/22 06:56:01;;;;;;;43.10;22.38;;;;;;;20.72;100.00;94281.53;5120879;27;20461;-81
2023/05/22 06:58:26;;;;;;;34.33;22.08;;;;;;;20.72;100.00;94292.97;5118640;28;20028;-81
2023/05/22 07:00:54;;;;;;;37.03;20.75;;;;;;;20.78;100.00;94293.53;5117496;28;20390;-81
2023/05/22 07:03:20;;;;;;;44.10;22.10;;;;;;;20.62;100.00;94288.09;5101860;28;20072;-82
2023/05/22 07:05:45;;;;;;;33.90;20.45;;;;;;;20.57;100.00;94290.97;5101415;28;20107;-81
2023/05/22 07:08:11;;;;;;;32.42;19.45;;;;;;;21.07;100.00;94296.28;5119509;28;20118;-81
2023/05/22 07:10:36;;;;;;;37.15;19.25;;;;;;;21.38;100.00;94295.66;5101367;28;20027;-82
2023/05/22 07:13:02;;;;;;;29.40;18.92;;;;;;;21.21;100.00;94304.69;5118159;28;20110;-81
2023/05/22 07:15:28;;;;;;;34.00;19.38;;;;;;;21.43;100.00;94303.41;5118104;28;20024;-81
2023/05/22 07:17:53;;;;;;;31.08;18.17;;;;;;;21.77;100.00;94307.78;5118089;28;20031;-81
2023/05/22 07:20:19;;;;;;;30.30;18.52;;;;;;;21.97;100.00;94311.34;5118140;28;20038;-81
2023/05/22 07:22:44;;;;;;;28.83;18.02;;;;;;;22.49;100.00;94314.97;5118223;28;20482;-82
2023/05/22 07:25:10;;;;;;;29.27;18.30;;;;;;;22.20;100.00;94308.09;5118082;28;20019;-81
2023/05/22 07:27:36;;;;;;;34.03;18.27;;;;;;;22.17;100.00;94318.34;5118010;28;20030;-81
2023/05/22 07:30:02;;;;;;;28.10;16.60;;;;;;;22.18;100.00;94321.81;5118017;28;20023;-82
2023/05/22 07:32:27;;;;;;;30.65;17.55;;;;;;;21.36;100.00;94321.88;5101151;28;20068;-81
2023/05/22 07:34:52;;;;;;;28.48;17.15;;;;;;;21.50;100.00;94312.72;5117743;28;20044;-81
2023/05/22 07:37:18;;;;;;;24.80;15.70;;;;;;;22.17;92.63;94323.69;5119049;28;20035;-82
2023/05/22 07:39:45;;;;;;;33.58;17.67;;;;;;;22.20;92.47;94321.44;5119014;28;20379;-81
2023/05/22 07:42:13;;;;;;;24.88;14.85;;;;;;;22.41;100.00;94322.00;5118932;28;20019;-83
2023/05/22 07:44:38;;;;;;;27.13;15.85;;;;;;;22.67;100.00;94318.06;5117531;28;20019;-81
2023/05/22 07:47:04;;;;;;;23.20;15.32;;;;;;;22.80;87.60;94315.25;5117569;28;20028;-81
2023/05/22 07:49:29;;;;;;;24.48;14.68;;;;;;;23.32;86.89;94313.38;5117850;28;20025;-81
2023/05/22 07:51:55;;;;;;;24.55;14.27;;;;;;;23.73;79.98;94321.06;5118744;28;20096;-81
2023/05/22 07:54:20;;;;;;;27.63;15.77;;;;;;;23.20;83.90;94316.16;5118464;28;20023;-81
2023/05/22 07:56:46;;;;;;;27.67;15.85;;;;;;;23.05;84.14;94313.16;5118708;28;20423;-81
2023/05/22 07:59:12;;;;;;;26.75;17.70;;;;;;;22.41;86.68;94311.31;5118559;28;20428;-82
2023/05/22 08:01:38;;;;;;;27.85;17.13;;;;;;;22.50;87.17;94315.72;5118560;28;20031;-82
2023/05/22 08:04:04;;;;;;;23.30;14.70;;;;;;;22.43;89.82;94308.28;5117459;28;20016;-81
2023/05/22 08:06:30;;;;;;;26.40;15.05;;;;;;;22.45;87.39;94316.72;5117407;28;20053;-82
2023/05/22 08:08:55;;;;;;;27.67;15.52;;;;;;;22.39;87.33;94310.09;5118454;28;20027;-82
2023/05/22 08:11:20;;;;;;;24.85;14.02;;;;;;;23.29;82.76;94314.06;5116879;28;20092;-81
2023/05/22 08:13:46;;;;;;;29.42;14.18;;;;;;;23.09;79.25;94315.91;5117003;28;20106;-82
2023/05/22 08:16:12;;;;;;;19.17;13.20;;;;;;;23.43;71.65;94313.59;5118182;28;20123;-82
2023/05/22 08:18:37;;;;;;;24.33;14.63;;;;;;;23.22;77.40;94313.91;5117216;28;20160;-81
2023/05/22 08:21:02;;;;;;;30.98;13.07;;;;;;;23.52;79.43;94308.03;5116934;28;20031;-81
2023/05/22 08:23:28;;;;;;;19.83;12.23;;;;;;;23.95;77.29;94303.50;5100215;28;20031;-81
2023/05/22 08:25:55;;;;;;;22.95;12.93;;;;;;;23.12;84.27;94301.88;5116778;28;20020;-81
2023/05/22 08:28:21;;;;;;;20.17;12.30;;;;;;;23.79;77.08;94300.16;5117319;28;20466;-81
2023/05/22 08:30:47;;;;;;;21.63;11.90;;;;;;;23.99;84.73;94296.31;5116803;28;20031;-81
2023/05/22 08:33:12;;;;;;;22.42;13.18;;;;;;;24.17;83.99;94297.78;5116751;28;20039;-81
2023/05/22 08:35:38;;;;;;;19.65;11.48;;;;;;;24.08;80.07;94304.13;5116400;28;20031;-81
2023/05/22 08:38:03;;;;;;;23.15;12.18;;;;;;;23.32;81.48;94293.88;5116634;28;20031;-82
2023/05/22 08:40:35;;;;;;;20.00;11.98;;;;;;;22.39;84.17;94302.09;5116828;28;20047;-81
2023/05/22 08:43:01;;;;;;;17.85;11.02;;;;;;;23.07;81.25;94296.78;5116611;28;20031;-81
2023/05/22 08:45:28;;;;;;;23.15;10.98;;;;;;;22.83;89.04;94304.66;5099277;28;20033;-81
2023/05/22 08:47:54;;;;;;;23.63;12.02;;;;;;;23.88;79.67;94297.25;5116512;28;20023;-81
2023/05/22 08:50:20;;;;;;;20.52;9.88;;;;;;;24.19;82.53;94298.22;5116600;28;20076;-81
2023/05/22 08:52:49;;;;;;;18.52;9.27;;;;;;;23.68;78.56;94286.59;5098860;28;20023;-81
2023/05/22 08:55:18;;;;;;;16.42;8.38;;;;;;;23.83;77.86;94293.75;5115069;28;20079;-82
2023/05/22 08:57:44;;;;;;;16.63;9.07;;;;;;;23.25;86.84;94289.16;5114122;28;20118;-81
2023/05/22 09:00:10;;;;;;;18.30;8.68;;;;;;;23.86;94.79;94287.69;5114051;28;20126;-81
2023/05/22 09:02:37;;;;;;;14.30;7.97;;;;;;;24.25;78.44;94294.88;5097568;28;20496;-81
2023/05/22 09:05:04;;;;;;;13.95;8.82;;;;;;;24.46;80.21;94296.38;5099649;28;20028;-82
2023/05/22 09:07:29;;;;;;;22.67;9.93;;;;;;;24.65;78.76;94297.44;5116227;28;20028;-81
2023/05/22 09:09:55;;;;;;;25.80;11.05;;;;;;;24.91;77.59;94304.72;5116250;28;20031;-82
2023/05/22 09:12:21;;;;;;;18.70;9.43;;;;;;;25.59;70.17;94298.72;5116153;28;20027;-82
2023/05/22 09:14:46;;;;;;;15.20;7.78;;;;;;;26.26;62.73;94309.81;5115827;28;20024;-82
2023/05/22 09:17:14;;;;;;;13.63;8.40;;;;;;;25.79;59.75;94301.25;5116283;28;20054;-81
2023/05/22 09:19:46;;;;;;;24.60;9.23;;;;;;;26.22;71.51;94306.31;5117266;28;20106;-81
2023/05/22 09:22:12;;;;;;;15.38;8.10;;;;;;;25.93;66.15;94304.09;5115906;28;20028;-82
2023/05/22 09:24:43;;;;;;;15.90;7.60;;;;;;;25.83;56.89;94305.53;5115502;28;20020;-81
2023/05/22 09:27:09;;;;;;;14.57;7.50;;;;;;;25.82;63.49;94298.63;5115833;28;20053;-81
2023/05/22 09:29:52;;;;;;;15.60;8.00;;;;;;;25.42;64.60;94292.00;5116997;28;20516;-81
2023/05/22 09:32:18;;;;;;;14.85;7.28;;;;;;;25.54;66.56;94291.78;5117072;28;20056;-81
2023/05/22 09:34:45;;;;;;;14.57;7.63;;;;;;;25.51;64.41;94299.78;5098737;28;20050;-81
2023/05/22 09:37:12;;;;;;;11.63;7.35;;;;;;;25.21;67.37;94300.53;5098620;28;20023;-81
2023/05/22 09:39:45;;;;;;;15.05;8.07;;;;;;;25.51;69.11;94305.16;5098724;28;20027;-81
2023/05/22 09:42:13;;;;;;;11.85;7.43;;;;;;;25.34;62.57;94307.22;5098579;28;20030;-82
2023/05/22 09:44:41;;;;;;;17.15;7.63;;;;;;;24.77;60.18;94302.63;5089047;28;20257;-82
2023/05/22 09:47:07;;;;;;;12.52;7.55;;;;;;;25.05;57.05;94304.16;5104200;28;20058;-82
2023/05/22 09:49:50;;;;;;;16.67;8.38;;;;;;;25.57;61.36;94305.59;5081805;28;20114;-81
2023/05/22 09:52:15;;;;;;;;;;;;;;;25.24;59.09;94303.25;5117421;28;20059;-82
2023/05/22 09:54:53;;;;;;;12.77;7.97;;;;;;;25.78;58.65;94297.78;5098680;28;19950;-82
2023/05/22 09:57:21;;;;;;;16.85;7.00;;;;;;;25.54;60.77;94301.72;5082359;28;20636;-82
2023/05/22 09:59:53;;;;;;;10.63;6.82;;;;;;;26.39;54.20;94300.31;5082114;28;20306;-81
2023/05/22 10:02:22;;;;;;;13.05;7.50;;;;;;;26.51;56.09;94296.59;5099068;28;20122;-81
2023/05/22 10:04:49;;;;;;;11.48;7.25;;;;;;;26.55;58.27;94296.63;5098179;28;20068;-81
2023/05/22 10:07:20;;;;;;;12.48;7.97;;;;;;;26.77;61.85;94294.09;5116282;28;20074;-82
2023/05/22 10:09:50;;;;;;;11.25;6.88;;;;;;;27.19;60.07;94300.13;5116283;28;20028;-82
2023/05/22 10:12:18;;;;;;;9.77;6.63;;;;;;;26.75;55.66;94289.06;5081380;28;20122;-81
2023/05/22 10:14:45;;;;;;;13.15;7.22;;;;;;;26.55;58.93;94302.00;5098294;28;20076;-82
2023/05/22 10:17:11;;;;;;;14.07;6.82;;;;;;;26.46;56.39;94299.59;5098271;28;20114;-82
2023/05/22 10:19:36;;;;;;;14.85;7.25;;;;;;;24.97;58.34;94295.25;5098122;28;20028;-81
2023/05/22 10:22:02;;;;;;;15.38;7.07;;;;;;;25.47;57.18;94294.34;5081577;28;20443;-81
2023/05/22 10:24:28;;;;;;;15.27;7.47;;;;;;;24.98;62.32;94299.47;5098278;28;20314;-81
2023/05/22 10:26:54;;;;;;;14.55;6.95;;;;;;;25.22;64.27;94294.78;5081678;28;20024;-81
2023/05/22 10:29:27;;;;;;;11.88;7.53;;;;;;;24.99;56.54;94282.25;5116427;28;20028;-81
2023/05/22 10:32:32;;;;;;;12.80;7.63;;;;;;;25.36;63.98;94280.81;5098542;28;20054;-81
2023/05/22 10:35:20;;;;;;;14.95;7.30;;;;;;;25.76;58.93;94286.66;5118444;28;20085;-81
2023/05/22 10:37:55;;;;;;;13.73;6.88;;;;;;;26.47;56.23;94277.00;5084892;28;20118;-81
2023/05/22 10:40:29;;;;;;;16.35;6.93;;;;;;;25.68;61.83;94285.03;5101867;28;20429;-81
2023/05/22 10:42:59;;;;;;;13.38;6.65;;;;;;;25.73;54.46;94286.59;5102271;28;20117;-81
2023/05/22 10:45:28;;;;;;;14.05;6.65;;;;;;;26.10;55.71;94281.22;5101699;28;20039;-81
2023/05/22 10:48:07;;;;;;;11.20;6.47;;;;;;;25.72;52.92;94283.16;5101784;28;20046;-81
2023/05/22 10:50:37;;;;;;;13.00;6.85;;;;;;;26.03;53.53;94283.88;5101599;28;20452;-81
2023/05/22 10:53:25;;;;;;;15.60;6.47;;;;;;;25.78;53.07;94287.06;5101703;28;20039;-81
2023/05/22 10:56:11;;;;;;;15.40;6.30;;;;;;;25.93;51.30;94290.66;5101508;28;20024;-81
2023/05/22 10:58:37;;;;;;;13.43;7.00;;;;;;;26.28;57.87;94288.72;5119681;28;20023;-81
2023/05/22 11:01:16;;;;;;;16.08;6.63;;;;;;;26.15;50.23;94284.75;5085207;28;20038;-81
2023/05/22 11:03:54;;;;;;;13.05;6.93;;;;;;;25.98;49.05;94276.91;5101619;28;20050;-81
2023/05/22 11:06:35;;;;;;;16.85;6.80;;;;;;;26.44;52.02;94268.91;5119486;28;20390;-81
2023/05/22 11:09:34;;;;;;;12.70;6.63;;;;;;;27.59;52.46;94270.75;5101326;28;20038;-81
2023/05/22 11:12:23;;;;;;;19.58;7.25;;;;;;;27.07;50.33;94274.31;5077633;28;20107;-81
2023/05/22 11:15:04;;;;;;;12.65;6.45;;;;;;;26.41;51.84;94264.28;5119337;28;20046;-81
2023/05/22 11:17:50;;;;;;;13.13;7.40;;;;;;;27.04;56.64;94272.41;5084616;28;20035;-81